sensor_id;sensor_type;location;lat;lon;timestamp;temperature;humidity
69731;SHT31;56996;48.138;11.538;2023-01-16T00:02:21;3.70;61.71
69731;SHT31;56996;48.138;11.538;2023-01-16T00:04:48;3.69;61.70
69731;SHT31;56996;48.138;11.538;2023-01-16T00:07:15;3.69;61.76
69731;SHT31;56996;48.138;11.538;2023-01-16T00:09:41;3.68;61.87
69731;SHT31;56996;48.138;11.538;2023-01-16T00:12:08;3.67;61.91
69731;SHT31;56996;48.138;11.538;2023-01-16T00:14:35;3.64;62.03
69731;SHT31;56996;48.138;11.538;2023-01-16T00:17:01;3.63;62.08
69731;SHT31;56996;48.138;11.538;2023-01-16T00:19:28;3.60;62.11
69731;SHT31;56996;48.138;11.538;2023-01-16T00:21:54;3.57;62.13
69731;SHT31;56996;48.138;11.538;2023-01-16T00:24:21;3.56;62.35
69731;SHT31;56996;48.138;11.538;2023-01-16T00:26:51;3.54;62.31
69731;SHT31;56996;48.138;11.538;2023-01-16T00:29:18;3.52;62.43
69731;SHT31;56996;48.138;11.538;2023-01-16T00:31:44;3.51;62.53
69731;SHT31;56996;48.138;11.538;2023-01-16T00:34:11;3.52;62.50
69731;SHT31;56996;48.138;11.538;2023-01-16T00:36:38;3.53;62.50
69731;SHT31;56996;48.138;11.538;2023-01-16T00:39:05;3.54;62.60
69731;SHT31;56996;48.138;11.538;2023-01-16T00:41:32;3.54;62.59
69731;SHT31;56996;48.138;11.538;2023-01-16T00:43:59;3.54;62.66
69731;SHT31;56996;48.138;11.538;2023-01-16T00:46:26;3.52;62.54
69731;SHT31;56996;48.138;11.538;2023-01-16T00:48:56;3.49;62.72
69731;SHT31;56996;48.138;11.538;2023-01-16T00:51:23;3.48;62.80
69731;SHT31;56996;48.138;11.538;2023-01-16T00:53:50;3.46;62.87
69731;SHT31;56996;48.138;11.538;2023-01-16T00:56:16;3.47;62.94
69731;SHT31;56996;48.138;11.538;2023-01-16T00:58:43;3.46;62.91
69731;SHT31;56996;48.138;11.538;2023-01-16T01:01:27;3.46;62.98
69731;SHT31;56996;48.138;11.538;2023-01-16T01:03:54;3.45;62.99
69731;SHT31;56996;48.138;11.538;2023-01-16T01:06:21;3.45;63.05
69731;SHT31;56996;48.138;11.538;2023-01-16T01:08:47;3.45;63.12
69731;SHT31;56996;48.138;11.538;2023-01-16T01:11:14;3.45;63.07
69731;SHT31;56996;48.138;11.538;2023-01-16T01:13:41;3.46;63.04
69731;SHT31;56996;48.138;11.538;2023-01-16T01:16:09;3.43;63.02
69731;SHT31;56996;48.138;11.538;2023-01-16T01:18:37;3.43;63.10
69731;SHT31;56996;48.138;11.538;2023-01-16T01:21:04;3.44;63.18
69731;SHT31;56996;48.138;11.538;2023-01-16T01:23:31;3.45;63.06
69731;SHT31;56996;48.138;11.538;2023-01-16T01:26:04;3.45;63.09
69731;SHT31;56996;48.138;11.538;2023-01-16T01:28:36;3.47;63.10
69731;SHT31;56996;48.138;11.538;2023-01-16T01:31:06;3.47;63.09
69731;SHT31;56996;48.138;11.538;2023-01-16T01:33:35;3.49;63.09
69731;SHT31;56996;48.138;11.538;2023-01-16T01:36:03;3.49;63.10
69731;SHT31;56996;48.138;11.538;2023-01-16T01:38:32;3.46;63.19
69731;SHT31;56996;48.138;11.538;2023-01-16T01:41:00;3.48;63.23
69731;SHT31;56996;48.138;11.538;2023-01-16T01:46:18;3.48;63.20
69731;SHT31;56996;48.138;11.538;2023-01-16T01:49:07;3.46;63.22
69731;SHT31;56996;48.138;11.538;2023-01-16T01:51:47;3.45;63.26
69731;SHT31;56996;48.138;11.538;2023-01-16T01:54:18;3.42;63.25
69731;SHT31;56996;48.138;11.538;2023-01-16T01:56:53;3.39;63.39
69731;SHT31;56996;48.138;11.538;2023-01-16T01:59:27;3.38;63.33
69731;SHT31;56996;48.138;11.538;2023-01-16T02:01:59;3.38;63.30
69731;SHT31;56996;48.138;11.538;2023-01-16T02:04:29;3.38;63.27
69731;SHT31;56996;48.138;11.538;2023-01-16T02:07:05;3.38;63.27
69731;SHT31;56996;48.138;11.538;2023-01-16T02:09:34;3.38;63.15
69731;SHT31;56996;48.138;11.538;2023-01-16T02:12:12;3.38;62.87
69731;SHT31;56996;48.138;11.538;2023-01-16T02:14:42;3.39;62.72
69731;SHT31;56996;48.138;11.538;2023-01-16T02:17:13;3.40;62.65
69731;SHT31;56996;48.138;11.538;2023-01-16T02:40:14;3.29;62.50
69731;SHT31;56996;48.138;11.538;2023-01-16T02:42:59;3.30;62.48
69731;SHT31;56996;48.138;11.538;2023-01-16T02:45:51;3.28;62.49
69731;SHT31;56996;48.138;11.538;2023-01-16T02:48:58;3.29;62.45
69731;SHT31;56996;48.138;11.538;2023-01-16T02:51:43;3.29;62.43
69731;SHT31;56996;48.138;11.538;2023-01-16T02:54:22;3.28;62.43
69731;SHT31;56996;48.138;11.538;2023-01-16T02:57:01;3.28;62.30
69731;SHT31;56996;48.138;11.538;2023-01-16T02:59:49;3.28;62.27
69731;SHT31;56996;48.138;11.538;2023-01-16T03:02:17;3.28;62.20
69731;SHT31;56996;48.138;11.538;2023-01-16T03:04:48;3.31;62.05
69731;SHT31;56996;48.138;11.538;2023-01-16T03:22:15;3.32;62.05
69731;SHT31;56996;48.138;11.538;2023-01-16T03:30:28;3.26;62.75
69731;SHT31;56996;48.138;11.538;2023-01-16T03:33:30;3.21;63.05
69731;SHT31;56996;48.138;11.538;2023-01-16T03:36:29;3.19;63.22
69731;SHT31;56996;48.138;11.538;2023-01-16T03:39:06;3.17;63.42
69731;SHT31;56996;48.138;11.538;2023-01-16T03:41:35;3.14;63.57
69731;SHT31;56996;48.138;11.538;2023-01-16T03:44:08;3.10;63.79
69731;SHT31;56996;48.138;11.538;2023-01-16T03:46:55;3.08;64.00
69731;SHT31;56996;48.138;11.538;2023-01-16T03:49:27;3.07;64.00
69731;SHT31;56996;48.138;11.538;2023-01-16T03:52:27;3.05;64.08
69731;SHT31;56996;48.138;11.538;2023-01-16T03:55:12;3.04;64.16
69731;SHT31;56996;48.138;11.538;2023-01-16T03:57:53;3.02;64.26
69731;SHT31;56996;48.138;11.538;2023-01-16T04:00:28;3.00;64.34
69731;SHT31;56996;48.138;11.538;2023-01-16T04:03:14;2.99;64.33
69731;SHT31;56996;48.138;11.538;2023-01-16T04:05:59;2.99;64.48
69731;SHT31;56996;48.138;11.538;2023-01-16T04:08:35;2.96;64.72
69731;SHT31;56996;48.138;11.538;2023-01-16T04:11:06;2.92;65.07
69731;SHT31;56996;48.138;11.538;2023-01-16T04:13:35;2.90;65.21
69731;SHT31;56996;48.138;11.538;2023-01-16T04:16:06;2.87;65.39
69731;SHT31;56996;48.138;11.538;2023-01-16T04:18:37;2.82;65.59
69731;SHT31;56996;48.138;11.538;2023-01-16T04:21:04;2.76;65.81
69731;SHT31;56996;48.138;11.538;2023-01-16T04:23:34;2.69;66.05
69731;SHT31;56996;48.138;11.538;2023-01-16T04:26:02;2.63;66.15
69731;SHT31;56996;48.138;11.538;2023-01-16T04:28:29;2.57;66.24
69731;SHT31;56996;48.138;11.538;2023-01-16T04:30:55;2.53;66.31
69731;SHT31;56996;48.138;11.538;2023-01-16T04:33:22;2.51;66.34
69731;SHT31;56996;48.138;11.538;2023-01-16T04:35:49;2.48;66.41
69731;SHT31;56996;48.138;11.538;2023-01-16T04:38:16;2.42;66.56
69731;SHT31;56996;48.138;11.538;2023-01-16T04:40:42;2.37;66.60
69731;SHT31;56996;48.138;11.538;2023-01-16T04:43:09;2.30;66.69
69731;SHT31;56996;48.138;11.538;2023-01-16T04:45:36;2.27;66.87
69731;SHT31;56996;48.138;11.538;2023-01-16T04:48:02;2.22;66.99
69731;SHT31;56996;48.138;11.538;2023-01-16T04:50:29;2.19;67.13
69731;SHT31;56996;48.138;11.538;2023-01-16T04:52:56;2.16;67.21
69731;SHT31;56996;48.138;11.538;2023-01-16T04:55:22;2.13;67.35
69731;SHT31;56996;48.138;11.538;2023-01-16T04:57:49;2.10;67.48
69731;SHT31;56996;48.138;11.538;2023-01-16T05:00:16;2.06;67.64
69731;SHT31;56996;48.138;11.538;2023-01-16T05:02:43;2.03;67.70
69731;SHT31;56996;48.138;11.538;2023-01-16T05:05:09;2.01;67.78
69731;SHT31;56996;48.138;11.538;2023-01-16T05:07:37;1.98;67.85
69731;SHT31;56996;48.138;11.538;2023-01-16T05:10:03;1.95;67.90
69731;SHT31;56996;48.138;11.538;2023-01-16T05:12:31;1.91;68.00
69731;SHT31;56996;48.138;11.538;2023-01-16T05:14:57;1.88;68.16
69731;SHT31;56996;48.138;11.538;2023-01-16T05:17:24;1.86;68.30
69731;SHT31;56996;48.138;11.538;2023-01-16T05:19:52;1.83;68.38
69731;SHT31;56996;48.138;11.538;2023-01-16T05:22:19;1.80;68.47
69731;SHT31;56996;48.138;11.538;2023-01-16T05:24:47;1.78;68.57
69731;SHT31;56996;48.138;11.538;2023-01-16T05:27:13;1.77;68.59
69731;SHT31;56996;48.138;11.538;2023-01-16T05:29:40;1.74;68.63
69731;SHT31;56996;48.138;11.538;2023-01-16T05:32:06;1.72;68.75
69731;SHT31;56996;48.138;11.538;2023-01-16T05:34:33;1.70;68.89
69731;SHT31;56996;48.138;11.538;2023-01-16T05:37:00;1.69;68.99
69731;SHT31;56996;48.138;11.538;2023-01-16T05:39:26;1.69;69.04
69731;SHT31;56996;48.138;11.538;2023-01-16T05:41:53;1.68;69.16
69731;SHT31;56996;48.138;11.538;2023-01-16T05:44:19;1.68;69.24
69731;SHT31;56996;48.138;11.538;2023-01-16T05:46:46;1.69;69.28
69731;SHT31;56996;48.138;11.538;2023-01-16T05:49:13;1.68;69.37
69731;SHT31;56996;48.138;11.538;2023-01-16T05:51:40;1.69;69.41
69731;SHT31;56996;48.138;11.538;2023-01-16T05:54:09;1.69;69.50
69731;SHT31;56996;48.138;11.538;2023-01-16T05:56:38;1.70;69.52
69731;SHT31;56996;48.138;11.538;2023-01-16T05:59:05;1.71;69.58
69731;SHT31;56996;48.138;11.538;2023-01-16T06:01:32;1.72;69.70
69731;SHT31;56996;48.138;11.538;2023-01-16T06:03:59;1.73;69.65
69731;SHT31;56996;48.138;11.538;2023-01-16T06:06:25;1.72;69.69
69731;SHT31;56996;48.138;11.538;2023-01-16T06:08:52;1.71;69.70
69731;SHT31;56996;48.138;11.538;2023-01-16T06:11:19;1.70;69.73
69731;SHT31;56996;48.138;11.538;2023-01-16T06:13:45;1.69;69.78
69731;SHT31;56996;48.138;11.538;2023-01-16T06:16:13;1.68;69.80
69731;SHT31;56996;48.138;11.538;2023-01-16T06:18:39;1.66;69.84
69731;SHT31;56996;48.138;11.538;2023-01-16T06:21:06;1.61;69.96
69731;SHT31;56996;48.138;11.538;2023-01-16T06:23:33;1.59;70.04
69731;SHT31;56996;48.138;11.538;2023-01-16T06:25:59;1.58;70.07
69731;SHT31;56996;48.138;11.538;2023-01-16T06:28:31;1.57;70.01
69731;SHT31;56996;48.138;11.538;2023-01-16T06:30:58;1.55;69.99
69731;SHT31;56996;48.138;11.538;2023-01-16T06:33:25;1.51;70.12
69731;SHT31;56996;48.138;11.538;2023-01-16T06:35:52;1.46;70.22
69731;SHT31;56996;48.138;11.538;2023-01-16T06:38:19;1.44;70.12
69731;SHT31;56996;48.138;11.538;2023-01-16T06:40:45;1.45;70.43
69731;SHT31;56996;48.138;11.538;2023-01-16T06:43:12;1.47;70.68
69731;SHT31;56996;48.138;11.538;2023-01-16T06:45:42;1.48;70.57
69731;SHT31;56996;48.138;11.538;2023-01-16T06:48:11;1.48;70.57
69731;SHT31;56996;48.138;11.538;2023-01-16T06:50:38;1.48;70.59
69731;SHT31;56996;48.138;11.538;2023-01-16T06:53:04;1.49;70.74
69731;SHT31;56996;48.138;11.538;2023-01-16T06:55:31;1.49;70.72
69731;SHT31;56996;48.138;11.538;2023-01-16T06:57:57;1.49;70.83
69731;SHT31;56996;48.138;11.538;2023-01-16T07:00:24;1.51;71.06
69731;SHT31;56996;48.138;11.538;2023-01-16T07:02:52;1.54;71.29
69731;SHT31;56996;48.138;11.538;2023-01-16T07:05:21;1.56;71.00
69731;SHT31;56996;48.138;11.538;2023-01-16T07:07:52;1.55;71.01
69731;SHT31;56996;48.138;11.538;2023-01-16T07:10:19;1.57;71.10
69731;SHT31;56996;48.138;11.538;2023-01-16T07:12:47;1.58;71.08
69731;SHT31;56996;48.138;11.538;2023-01-16T07:15:15;1.59;71.06
69731;SHT31;56996;48.138;11.538;2023-01-16T07:18:01;1.60;71.09
69731;SHT31;56996;48.138;11.538;2023-01-16T07:20:50;1.61;71.12
69731;SHT31;56996;48.138;11.538;2023-01-16T07:23:39;1.63;71.18
69731;SHT31;56996;48.138;11.538;2023-01-16T07:26:17;1.64;71.22
69731;SHT31;56996;48.138;11.538;2023-01-16T07:28:46;1.67;71.69
69731;SHT31;56996;48.138;11.538;2023-01-16T07:31:15;1.71;71.59
69731;SHT31;56996;48.138;11.538;2023-01-16T07:33:43;1.75;71.47
69731;SHT31;56996;48.138;11.538;2023-01-16T07:36:09;1.78;71.38
69731;SHT31;56996;48.138;11.538;2023-01-16T07:38:36;1.77;71.36
69731;SHT31;56996;48.138;11.538;2023-01-16T07:41:03;1.79;71.54
69731;SHT31;56996;48.138;11.538;2023-01-16T07:43:30;1.80;71.47
69731;SHT31;56996;48.138;11.538;2023-01-16T07:45:56;1.82;71.48
69731;SHT31;56996;48.138;11.538;2023-01-16T07:48:23;1.87;71.65
69731;SHT31;56996;48.138;11.538;2023-01-16T07:50:51;1.89;71.72
69731;SHT31;56996;48.138;11.538;2023-01-16T07:53:24;1.93;71.49
69731;SHT31;56996;48.138;11.538;2023-01-16T07:55:54;1.94;71.19
69731;SHT31;56996;48.138;11.538;2023-01-16T07:58:24;1.99;71.41
69731;SHT31;56996;48.138;11.538;2023-01-16T08:00:52;2.06;71.21
69731;SHT31;56996;48.138;11.538;2023-01-16T08:03:21;2.12;70.97
69731;SHT31;56996;48.138;11.538;2023-01-16T08:05:53;2.17;70.74
69731;SHT31;56996;48.138;11.538;2023-01-16T08:08:22;2.23;70.47
69731;SHT31;56996;48.138;11.538;2023-01-16T08:10:55;2.30;70.24
69731;SHT31;56996;48.138;11.538;2023-01-16T08:13:46;2.34;69.94
69731;SHT31;56996;48.138;11.538;2023-01-16T08:16:13;2.37;69.77
69731;SHT31;56996;48.138;11.538;2023-01-16T08:18:40;2.38;69.73
69731;SHT31;56996;48.138;11.538;2023-01-16T08:21:06;2.45;69.74
69731;SHT31;56996;48.138;11.538;2023-01-16T08:23:33;2.53;69.63
69731;SHT31;56996;48.138;11.538;2023-01-16T08:25:59;2.59;69.27
69731;SHT31;56996;48.138;11.538;2023-01-16T08:28:26;2.57;69.17
69731;SHT31;56996;48.138;11.538;2023-01-16T08:30:53;2.63;69.03
69731;SHT31;56996;48.138;11.538;2023-01-16T08:33:20;2.67;69.14
69731;SHT31;56996;48.138;11.538;2023-01-16T08:35:46;2.68;68.79
69731;SHT31;56996;48.138;11.538;2023-01-16T08:38:13;2.72;68.84
69731;SHT31;56996;48.138;11.538;2023-01-16T08:40:40;2.78;68.50
69731;SHT31;56996;48.138;11.538;2023-01-16T08:43:07;2.83;68.67
69731;SHT31;56996;48.138;11.538;2023-01-16T08:45:54;2.91;68.51
69731;SHT31;56996;48.138;11.538;2023-01-16T08:48:39;2.94;68.32
69731;SHT31;56996;48.138;11.538;2023-01-16T08:51:25;2.97;68.24
69731;SHT31;56996;48.138;11.538;2023-01-16T08:53:52;2.99;68.23
69731;SHT31;56996;48.138;11.538;2023-01-16T08:56:22;3.03;68.06
69731;SHT31;56996;48.138;11.538;2023-01-16T08:58:49;3.07;67.92
69731;SHT31;56996;48.138;11.538;2023-01-16T09:01:16;3.11;67.75
69731;SHT31;56996;48.138;11.538;2023-01-16T09:03:44;3.10;67.59
69731;SHT31;56996;48.138;11.538;2023-01-16T09:06:12;3.15;67.51
69731;SHT31;56996;48.138;11.538;2023-01-16T09:08:39;3.22;67.28
69731;SHT31;56996;48.138;11.538;2023-01-16T09:11:05;3.27;67.25
69731;SHT31;56996;48.138;11.538;2023-01-16T09:13:52;3.33;66.95
69731;SHT31;56996;48.138;11.538;2023-01-16T09:16:22;3.38;66.83
69731;SHT31;56996;48.138;11.538;2023-01-16T09:18:51;3.44;66.86
69731;SHT31;56996;48.138;11.538;2023-01-16T09:21:18;3.54;66.86
69731;SHT31;56996;48.138;11.538;2023-01-16T09:23:45;3.60;66.43
69731;SHT31;56996;48.138;11.538;2023-01-16T09:26:12;3.64;66.24
69731;SHT31;56996;48.138;11.538;2023-01-16T09:28:40;3.68;66.06
69731;SHT31;56996;48.138;11.538;2023-01-16T09:31:07;3.72;66.01
69731;SHT31;56996;48.138;11.538;2023-01-16T09:33:34;3.72;65.97
69731;SHT31;56996;48.138;11.538;2023-01-16T09:36:03;3.79;66.10
69731;SHT31;56996;48.138;11.538;2023-01-16T09:38:31;3.89;65.82
69731;SHT31;56996;48.138;11.538;2023-01-16T09:40:58;4.01;65.60
69731;SHT31;56996;48.138;11.538;2023-01-16T09:43:41;4.12;65.20
69731;SHT31;56996;48.138;11.538;2023-01-16T09:46:14;4.23;64.74
69731;SHT31;56996;48.138;11.538;2023-01-16T09:51:29;4.29;64.54
69731;SHT31;56996;48.138;11.538;2023-01-16T09:54:12;4.40;63.91
69731;SHT31;56996;48.138;11.538;2023-01-16T09:57:09;4.69;63.36
69731;SHT31;56996;48.138;11.538;2023-01-16T09:59:58;4.92;61.84
69731;SHT31;56996;48.138;11.538;2023-01-16T10:02:35;5.14;62.00
69731;SHT31;56996;48.138;11.538;2023-01-16T10:05:03;5.33;61.21
69731;SHT31;56996;48.138;11.538;2023-01-16T10:10:32;5.73;60.64
69731;SHT31;56996;48.138;11.538;2023-01-16T10:13:29;6.46;59.79
69731;SHT31;56996;48.138;11.538;2023-01-16T10:19:03;8.43;54.35
69731;SHT31;56996;48.138;11.538;2023-01-16T10:27:52;9.52;51.98
69731;SHT31;56996;48.138;11.538;2023-01-16T10:30:28;10.19;50.55
69731;SHT31;56996;48.138;11.538;2023-01-16T10:33:26;10.48;49.70
69731;SHT31;56996;48.138;11.538;2023-01-16T10:35:58;11.10;48.77
69731;SHT31;56996;48.138;11.538;2023-01-16T10:41:13;12.27;46.46
69731;SHT31;56996;48.138;11.538;2023-01-16T10:44:08;12.74;45.22
69731;SHT31;56996;48.138;11.538;2023-01-16T10:47:27;13.06;44.35
69731;SHT31;56996;48.138;11.538;2023-01-16T10:50:16;13.32;43.38
69731;SHT31;56996;48.138;11.538;2023-01-16T10:53:02;13.60;42.83
69731;SHT31;56996;48.138;11.538;2023-01-16T10:55:31;13.40;40.42
69731;SHT31;56996;48.138;11.538;2023-01-16T10:58:02;12.85;42.25
69731;SHT31;56996;48.138;11.538;2023-01-16T11:00:37;12.32;43.24
69731;SHT31;56996;48.138;11.538;2023-01-16T11:03:19;12.12;43.66
69731;SHT31;56996;48.138;11.538;2023-01-16T11:06:05;12.14;43.41
69731;SHT31;56996;48.138;11.538;2023-01-16T11:08:46;11.94;43.04
69731;SHT31;56996;48.138;11.538;2023-01-16T11:11:36;11.68;42.96
69731;SHT31;56996;48.138;11.538;2023-01-16T11:14:22;11.16;42.19
69731;SHT31;56996;48.138;11.538;2023-01-16T11:17:33;10.68;42.94
69731;SHT31;56996;48.138;11.538;2023-01-16T11:22:55;10.14;44.31
69731;SHT31;56996;48.138;11.538;2023-01-16T11:25:25;9.91;44.37
69731;SHT31;56996;48.138;11.538;2023-01-16T11:27:54;9.54;44.98
69731;SHT31;56996;48.138;11.538;2023-01-16T11:30:27;9.25;45.19
69731;SHT31;56996;48.138;11.538;2023-01-16T11:32:58;9.01;46.00
69731;SHT31;56996;48.138;11.538;2023-01-16T11:35:30;8.89;46.04
69731;SHT31;56996;48.138;11.538;2023-01-16T11:38:00;8.77;46.04
69731;SHT31;56996;48.138;11.538;2023-01-16T11:40:31;8.55;46.57
69731;SHT31;56996;48.138;11.538;2023-01-16T11:43:06;8.46;47.33
69731;SHT31;56996;48.138;11.538;2023-01-16T11:45:58;8.41;47.75
69731;SHT31;56996;48.138;11.538;2023-01-16T11:48:41;8.37;47.99
69731;SHT31;56996;48.138;11.538;2023-01-16T11:51:17;8.35;47.91
69731;SHT31;56996;48.138;11.538;2023-01-16T11:53:48;8.28;47.76
69731;SHT31;56996;48.138;11.538;2023-01-16T11:56:27;8.14;47.96
69731;SHT31;56996;48.138;11.538;2023-01-16T12:00:26;7.93;48.69
69731;SHT31;56996;48.138;11.538;2023-01-16T12:14:59;7.62;50.16
69731;SHT31;56996;48.138;11.538;2023-01-16T12:20:53;7.48;50.73
69731;SHT31;56996;48.138;11.538;2023-01-16T12:32:52;7.71;49.84
69731;SHT31;56996;48.138;11.538;2023-01-16T12:35:47;7.83;50.00
69731;SHT31;56996;48.138;11.538;2023-01-16T12:38:26;7.93;49.92
69731;SHT31;56996;48.138;11.538;2023-01-16T12:41:26;7.97;50.03
69731;SHT31;56996;48.138;11.538;2023-01-16T12:44:50;7.97;50.02
69731;SHT31;56996;48.138;11.538;2023-01-16T12:47:41;7.91;50.27
69731;SHT31;56996;48.138;11.538;2023-01-16T13:01:45;7.83;51.35
69731;SHT31;56996;48.138;11.538;2023-01-16T13:04:27;7.88;51.94
69731;SHT31;56996;48.138;11.538;2023-01-16T13:07:00;7.93;51.80
69731;SHT31;56996;48.138;11.538;2023-01-16T13:12:17;8.03;51.94
69731;SHT31;56996;48.138;11.538;2023-01-16T13:15:19;8.09;51.78
69731;SHT31;56996;48.138;11.538;2023-01-16T13:17:57;8.13;51.80
69731;SHT31;56996;48.138;11.538;2023-01-16T13:20:30;8.15;51.53
69731;SHT31;56996;48.138;11.538;2023-01-16T13:23:01;8.11;51.35
69731;SHT31;56996;48.138;11.538;2023-01-16T13:25:44;8.08;51.38
69731;SHT31;56996;48.138;11.538;2023-01-16T13:28:20;8.05;51.62
69731;SHT31;56996;48.138;11.538;2023-01-16T13:30:53;8.05;51.59
69731;SHT31;56996;48.138;11.538;2023-01-16T13:33:27;8.11;51.65
69731;SHT31;56996;48.138;11.538;2023-01-16T13:36:15;8.14;51.31
69731;SHT31;56996;48.138;11.538;2023-01-16T13:39:10;8.13;51.35
69731;SHT31;56996;48.138;11.538;2023-01-16T13:42:10;8.09;51.26
69731;SHT31;56996;48.138;11.538;2023-01-16T13:44:41;8.13;51.36
69731;SHT31;56996;48.138;11.538;2023-01-16T13:47:37;8.13;51.30
69731;SHT31;56996;48.138;11.538;2023-01-16T13:50:07;8.15;51.44
69731;SHT31;56996;48.138;11.538;2023-01-16T13:53:03;8.12;51.57
69731;SHT31;56996;48.138;11.538;2023-01-16T13:55:35;8.12;51.25
69731;SHT31;56996;48.138;11.538;2023-01-16T13:58:13;8.14;51.26
69731;SHT31;56996;48.138;11.538;2023-01-16T14:00:59;8.12;51.30
69731;SHT31;56996;48.138;11.538;2023-01-16T14:03:33;8.15;51.35
69731;SHT31;56996;48.138;11.538;2023-01-16T14:08:47;8.08;51.01
69731;SHT31;56996;48.138;11.538;2023-01-16T14:14:34;8.15;50.75
69731;SHT31;56996;48.138;11.538;2023-01-16T14:20:42;8.15;49.69
69731;SHT31;56996;48.138;11.538;2023-01-16T14:23:17;8.11;49.51
69731;SHT31;56996;48.138;11.538;2023-01-16T14:26:15;8.13;49.05
69731;SHT31;56996;48.138;11.538;2023-01-16T14:28:47;8.13;49.02
69731;SHT31;56996;48.138;11.538;2023-01-16T14:31:22;8.13;48.85
69731;SHT31;56996;48.138;11.538;2023-01-16T14:33:52;8.08;48.07
69731;SHT31;56996;48.138;11.538;2023-01-16T14:36:23;8.00;48.02
69731;SHT31;56996;48.138;11.538;2023-01-16T14:38:53;7.97;48.11
69731;SHT31;56996;48.138;11.538;2023-01-16T14:41:23;7.92;47.66
69731;SHT31;56996;48.138;11.538;2023-01-16T14:44:20;7.80;46.38
69731;SHT31;56996;48.138;11.538;2023-01-16T14:50:09;7.68;46.78
69731;SHT31;56996;48.138;11.538;2023-01-16T14:56:00;7.69;45.80
69731;SHT31;56996;48.138;11.538;2023-01-16T14:58:56;7.64;45.25
69731;SHT31;56996;48.138;11.538;2023-01-16T15:01:37;7.53;44.55
69731;SHT31;56996;48.138;11.538;2023-01-16T15:04:29;7.47;44.39
69731;SHT31;56996;48.138;11.538;2023-01-16T15:07:06;7.46;44.19
69731;SHT31;56996;48.138;11.538;2023-01-16T15:09:33;7.45;43.86
69731;SHT31;56996;48.138;11.538;2023-01-16T15:12:12;7.40;43.70
69731;SHT31;56996;48.138;11.538;2023-01-16T15:14:56;7.34;43.32
69731;SHT31;56996;48.138;11.538;2023-01-16T15:17:28;7.28;43.35
69731;SHT31;56996;48.138;11.538;2023-01-16T15:20:22;7.26;43.50
69731;SHT31;56996;48.138;11.538;2023-01-16T15:23:27;7.25;43.82
69731;SHT31;56996;48.138;11.538;2023-01-16T15:28:46;7.27;44.61
69731;SHT31;56996;48.138;11.538;2023-01-16T15:31:39;7.23;45.26
69731;SHT31;56996;48.138;11.538;2023-01-16T15:36:41;7.14;44.91
69731;SHT31;56996;48.138;11.538;2023-01-16T15:41:53;7.02;45.80
69731;SHT31;56996;48.138;11.538;2023-01-16T15:44:50;7.01;45.73
69731;SHT31;56996;48.138;11.538;2023-01-16T15:50:52;7.01;46.10
69731;SHT31;56996;48.138;11.538;2023-01-16T15:53:30;6.97;45.71
69731;SHT31;56996;48.138;11.538;2023-01-16T15:56:07;6.84;45.57
69731;SHT31;56996;48.138;11.538;2023-01-16T15:58:58;6.78;45.82
69731;SHT31;56996;48.138;11.538;2023-01-16T16:01:26;6.73;45.87
69731;SHT31;56996;48.138;11.538;2023-01-16T16:03:59;6.66;45.80
69731;SHT31;56996;48.138;11.538;2023-01-16T16:06:29;6.61;45.85
69731;SHT31;56996;48.138;11.538;2023-01-16T16:08:56;6.57;45.94
69731;SHT31;56996;48.138;11.538;2023-01-16T16:11:26;6.56;46.27
69731;SHT31;56996;48.138;11.538;2023-01-16T16:14:33;6.52;46.25
69731;SHT31;56996;48.138;11.538;2023-01-16T16:17:22;6.49;46.19
69731;SHT31;56996;48.138;11.538;2023-01-16T16:20:26;6.41;46.40
69731;SHT31;56996;48.138;11.538;2023-01-16T16:23:02;6.39;46.51
69731;SHT31;56996;48.138;11.538;2023-01-16T16:25:32;6.34;46.65
69731;SHT31;56996;48.138;11.538;2023-01-16T16:28:04;6.34;46.82
69731;SHT31;56996;48.138;11.538;2023-01-16T16:30:40;6.29;46.70
69731;SHT31;56996;48.138;11.538;2023-01-16T16:33:17;6.26;47.05
69731;SHT31;56996;48.138;11.538;2023-01-16T16:35:46;6.24;47.20
69731;SHT31;56996;48.138;11.538;2023-01-16T16:46:28;6.14;47.38
69731;SHT31;56996;48.138;11.538;2023-01-16T16:48:58;6.12;47.29
69731;SHT31;56996;48.138;11.538;2023-01-16T16:51:50;6.08;47.54
69731;SHT31;56996;48.138;11.538;2023-01-16T16:54:17;6.07;47.63
69731;SHT31;56996;48.138;11.538;2023-01-16T16:56:48;6.05;47.52
69731;SHT31;56996;48.138;11.538;2023-01-16T16:59:20;6.04;47.47
69731;SHT31;56996;48.138;11.538;2023-01-16T17:01:53;6.01;47.32
69731;SHT31;56996;48.138;11.538;2023-01-16T17:04:27;5.99;47.55
69731;SHT31;56996;48.138;11.538;2023-01-16T17:06:53;5.97;47.74
69731;SHT31;56996;48.138;11.538;2023-01-16T17:09:20;5.96;47.93
69731;SHT31;56996;48.138;11.538;2023-01-16T17:11:48;5.95;48.02
69731;SHT31;56996;48.138;11.538;2023-01-16T17:14:15;5.96;47.78
69731;SHT31;56996;48.138;11.538;2023-01-16T17:16:42;5.92;47.66
69731;SHT31;56996;48.138;11.538;2023-01-16T17:19:17;5.86;47.87
69731;SHT31;56996;48.138;11.538;2023-01-16T17:21:51;5.80;48.22
69731;SHT31;56996;48.138;11.538;2023-01-16T17:24:18;5.79;48.12
69731;SHT31;56996;48.138;11.538;2023-01-16T17:26:46;5.84;47.89
69731;SHT31;56996;48.138;11.538;2023-01-16T17:29:14;5.89;47.76
69731;SHT31;56996;48.138;11.538;2023-01-16T17:31:44;5.90;47.79
69731;SHT31;56996;48.138;11.538;2023-01-16T17:34:12;5.91;47.74
69731;SHT31;56996;48.138;11.538;2023-01-16T17:36:44;5.89;47.91
69731;SHT31;56996;48.138;11.538;2023-01-16T17:39:13;5.87;48.09
69731;SHT31;56996;48.138;11.538;2023-01-16T17:41:39;5.86;48.12
69731;SHT31;56996;48.138;11.538;2023-01-16T17:44:20;5.85;48.23
69731;SHT31;56996;48.138;11.538;2023-01-16T17:47:08;5.82;48.30
69731;SHT31;56996;48.138;11.538;2023-01-16T17:49:37;5.78;48.28
69731;SHT31;56996;48.138;11.538;2023-01-16T17:52:23;5.73;48.18
69731;SHT31;56996;48.138;11.538;2023-01-16T17:54:51;5.71;47.96
69731;SHT31;56996;48.138;11.538;2023-01-16T17:57:36;5.68;47.94
69731;SHT31;56996;48.138;11.538;2023-01-16T18:00:03;5.67;48.17
69731;SHT31;56996;48.138;11.538;2023-01-16T18:02:31;5.67;48.12
69731;SHT31;56996;48.138;11.538;2023-01-16T18:04:58;5.65;48.13
69731;SHT31;56996;48.138;11.538;2023-01-16T18:07:25;5.64;48.22
69731;SHT31;56996;48.138;11.538;2023-01-16T18:09:52;5.62;48.43
69731;SHT31;56996;48.138;11.538;2023-01-16T18:12:18;5.57;48.69
69731;SHT31;56996;48.138;11.538;2023-01-16T18:15:03;5.53;49.01
69731;SHT31;56996;48.138;11.538;2023-01-16T18:17:50;5.49;49.09
69731;SHT31;56996;48.138;11.538;2023-01-16T18:20:17;5.45;49.29
69731;SHT31;56996;48.138;11.538;2023-01-16T18:22:45;5.42;49.39
69731;SHT31;56996;48.138;11.538;2023-01-16T18:25:12;5.39;49.42
69731;SHT31;56996;48.138;11.538;2023-01-16T18:27:38;5.37;49.48
69731;SHT31;56996;48.138;11.538;2023-01-16T18:30:08;5.37;49.59
69731;SHT31;56996;48.138;11.538;2023-01-16T18:32:36;5.37;49.70